Terminal Aerodrome Forecast
Issued by NWS Austin/San Antonio, TX

Home | Current Version | Previous Version | Text Only | Print | Product List | Glossary On
Versions: 1 2 3 4 5 6 7 8 9 10 11 12 13 14 15 16 17 18 19 20 21 22 23 24 25 26
000
FTUS44 KEWX 272320
TAFAUS
TAF
KAUS 272320Z 2800/2906 16012KT P6SM SCT030 BKN250
     FM280600 16005KT 6SM BR OVC015
     FM281000 16005KT 4SM BR OVC008
     FM281500 16009KT P6SM OVC025
     FM281900 16013KT P6SM BKN040=

USA.gov is the U.S. government's official web portal to all federal, state and local government web resources and services.